createdAt,value
2023-03-22T00:01:46.236Z,1.70
2023-03-22T00:04:28.467Z,1.70
2023-03-22T00:07:11.001Z,1.70
2023-03-22T00:09:53.211Z,1.70
2023-03-22T00:12:35.602Z,1.80
2023-03-22T00:15:17.878Z,1.70
2023-03-22T00:18:02.132Z,1.70
2023-03-22T00:20:52.815Z,1.70
2023-03-22T00:23:35.237Z,1.70
2023-03-22T00:26:17.410Z,1.70
2023-03-22T00:28:59.947Z,1.60
2023-03-22T00:31:43.012Z,1.70
2023-03-22T00:34:27.112Z,1.70
2023-03-22T00:37:09.493Z,1.70
2023-03-22T00:39:52.024Z,1.70
2023-03-22T00:42:34.897Z,1.70
2023-03-22T00:45:17.386Z,1.70
2023-03-22T00:47:59.711Z,1.70
2023-03-22T00:50:42.104Z,1.60
2023-03-22T00:53:24.677Z,1.50
2023-03-22T00:56:07.798Z,1.70
2023-03-22T00:59:00.374Z,1.80
2023-03-22T01:01:43.764Z,1.90
2023-03-22T01:04:26.351Z,1.80
2023-03-22T01:07:09.156Z,1.80
2023-03-22T01:09:52.517Z,1.90
2023-03-22T01:12:34.956Z,1.90
2023-03-22T01:15:17.232Z,2.00
2023-03-22T01:17:59.928Z,2.10
2023-03-22T01:20:42.306Z,2.20
2023-03-22T01:23:24.824Z,2.30
2023-03-22T01:26:07.352Z,2.40
2023-03-22T01:28:49.778Z,2.50
2023-03-22T01:31:32.029Z,2.70
2023-03-22T01:34:14.513Z,2.80
2023-03-22T01:36:57.480Z,2.90
2023-03-22T01:39:40.323Z,3.00
2023-03-22T01:42:25.794Z,3.10
2023-03-22T01:45:16.814Z,3.20
2023-03-22T01:48:03.569Z,3.20
2023-03-22T01:51:03.278Z,3.30
2023-03-22T01:54:01.473Z,3.40
2023-03-22T01:56:44.846Z,3.60
2023-03-22T01:59:36.608Z,3.70
2023-03-22T02:02:30.986Z,3.70
2023-03-22T02:05:25.345Z,3.70
2023-03-22T02:08:14.923Z,3.80
2023-03-22T02:11:16.572Z,3.80
2023-03-22T02:14:23.525Z,3.90
2023-03-22T02:17:42.241Z,3.90
2023-03-22T02:20:42.254Z,3.90
2023-03-22T02:24:18.766Z,3.90
2023-03-22T02:27:22.502Z,4.00
2023-03-22T02:30:06.329Z,4.10
2023-03-22T02:33:15.338Z,4.20
2023-03-22T02:36:14.451Z,4.30
2023-03-22T02:39:32.265Z,4.40
2023-03-22T02:42:20.176Z,4.50
2023-03-22T02:45:16.811Z,4.50
2023-03-22T02:48:11.744Z,4.50
2023-03-22T02:50:59.427Z,4.60
2023-03-22T02:53:53.824Z,4.60
2023-03-22T02:56:55.635Z,4.60
2023-03-22T02:59:41.834Z,4.70
2023-03-22T03:02:27.598Z,4.70
2023-03-22T03:05:11.620Z,4.80
2023-03-22T03:08:01.266Z,4.80
2023-03-22T03:10:45.666Z,4.90
2023-03-22T03:13:28.124Z,4.90
2023-03-22T03:16:17.688Z,5.00
2023-03-22T03:19:12.188Z,5.10
2023-03-22T03:22:12.075Z,5.20
2023-03-22T03:25:18.304Z,5.20
2023-03-22T03:28:23.069Z,5.30
2023-03-22T03:31:29.368Z,5.40
2023-03-22T03:34:28.470Z,5.40
2023-03-22T03:37:19.907Z,5.50
2023-03-22T03:40:11.471Z,5.60
2023-03-22T03:42:56.292Z,5.60
2023-03-22T03:45:40.308Z,5.60
2023-03-22T03:48:31.461Z,5.60
2023-03-22T03:51:13.902Z,5.70
2023-03-22T03:53:56.452Z,5.70
2023-03-22T03:56:38.859Z,5.80
2023-03-22T03:59:21.321Z,5.90
2023-03-22T04:02:06.113Z,6.00
2023-03-22T04:04:49.376Z,6.00
2023-03-22T04:07:35.304Z,6.10
2023-03-22T04:10:17.986Z,6.10
2023-03-22T04:13:00.430Z,6.10
2023-03-22T04:15:43.187Z,6.10
2023-03-22T04:18:30.132Z,6.20
2023-03-22T04:21:16.638Z,6.30
2023-03-22T04:24:09.426Z,6.30
2023-03-22T04:26:55.963Z,6.30
2023-03-22T04:29:48.448Z,6.30
2023-03-22T04:32:50.337Z,6.30
2023-03-22T04:35:37.205Z,6.40
2023-03-22T04:38:20.103Z,6.40
2023-03-22T04:41:03.161Z,6.40
2023-03-22T04:43:54.781Z,6.50
2023-03-22T04:46:37.641Z,6.50
2023-03-22T04:49:22.072Z,6.50
2023-03-22T04:52:04.406Z,6.50
2023-03-22T04:54:53.085Z,6.60
2023-03-22T04:57:35.852Z,6.60
2023-03-22T05:00:19.049Z,6.60
2023-03-22T05:03:04.198Z,6.60
2023-03-22T05:05:58.332Z,6.70
2023-03-22T05:08:46.070Z,6.70
2023-03-22T05:11:29.067Z,6.70
2023-03-22T05:14:31.527Z,6.70
2023-03-22T05:17:14.349Z,6.70
2023-03-22T05:19:56.677Z,6.80
2023-03-22T05:22:40.924Z,6.80
2023-03-22T05:25:25.400Z,6.90
2023-03-22T05:28:08.665Z,6.90
2023-03-22T05:30:57.544Z,7.00
2023-03-22T05:33:52.405Z,7.00
2023-03-22T05:36:38.865Z,7.00
2023-03-22T05:39:50.488Z,7.00
2023-03-22T05:42:33.067Z,7.00
2023-03-22T05:45:19.462Z,7.10
2023-03-22T05:48:08.012Z,7.10
2023-03-22T05:50:51.446Z,7.10
2023-03-22T05:53:34.770Z,7.10
2023-03-22T05:56:25.844Z,7.10
2023-03-22T05:59:16.582Z,7.20
2023-03-22T06:01:59.610Z,7.20
2023-03-22T06:04:42.909Z,7.20
2023-03-22T06:07:31.620Z,7.20
2023-03-22T06:10:27.033Z,7.20
2023-03-22T06:13:09.832Z,7.20
2023-03-22T06:15:52.684Z,7.20
2023-03-22T06:18:38.623Z,7.20
2023-03-22T06:21:25.723Z,7.30
2023-03-22T06:24:08.634Z,7.30
2023-03-22T06:26:51.162Z,7.30
2023-03-22T06:29:33.794Z,7.30
2023-03-22T06:32:19.234Z,7.30
2023-03-22T06:35:02.721Z,7.30
2023-03-22T06:37:45.183Z,7.30
2023-03-22T06:40:28.139Z,7.30
2023-03-22T06:43:10.557Z,7.40
2023-03-22T06:45:57.468Z,7.40
2023-03-22T06:48:46.496Z,7.40
2023-03-22T06:51:31.882Z,7.40
2023-03-22T06:54:14.873Z,7.50
2023-03-22T06:56:57.387Z,7.50
2023-03-22T06:59:39.671Z,7.50
2023-03-22T07:02:22.130Z,7.50
2023-03-22T07:05:27.962Z,7.50
2023-03-22T07:08:10.790Z,7.50
2023-03-22T07:10:57.849Z,7.50
2023-03-22T07:13:40.759Z,7.50
2023-03-22T07:16:27.750Z,7.50
2023-03-22T07:19:17.397Z,7.50
2023-03-22T07:21:59.841Z,7.50
2023-03-22T07:24:55.817Z,7.60
2023-03-22T07:27:40.647Z,7.70
2023-03-22T07:30:23.466Z,7.90
2023-03-22T07:33:08.368Z,8.00
2023-03-22T07:35:51.030Z,8.10
2023-03-22T07:38:33.368Z,8.20
2023-03-22T07:41:16.029Z,8.40
2023-03-22T07:44:18.015Z,8.50
2023-03-22T07:47:39.615Z,8.50
2023-03-22T07:50:43.339Z,8.70
2023-03-22T07:53:26.593Z,9.00
2023-03-22T07:56:09.370Z,9.10
2023-03-22T07:58:51.815Z,9.10
2023-03-22T08:01:34.203Z,9.10
2023-03-22T08:04:34.851Z,9.10
2023-03-22T08:07:27.110Z,9.10
2023-03-22T08:10:09.835Z,9.20
2023-03-22T08:12:52.283Z,9.30
2023-03-22T08:15:39.437Z,9.30
2023-03-22T08:18:22.092Z,9.40
2023-03-22T08:21:05.779Z,9.60
2023-03-22T08:23:50.524Z,9.70
2023-03-22T08:26:49.764Z,9.90
2023-03-22T08:29:49.155Z,10.00
2023-03-22T08:32:33.813Z,10.10
2023-03-22T08:35:16.371Z,10.30
2023-03-22T08:37:58.901Z,10.40
2023-03-22T08:40:49.859Z,10.50
2023-03-22T08:43:37.263Z,10.70
2023-03-22T08:46:19.702Z,10.70
2023-03-22T08:49:03.448Z,10.70
2023-03-22T08:51:50.871Z,10.70
2023-03-22T08:54:53.521Z,10.80
2023-03-22T08:57:58.814Z,10.80
2023-03-22T09:00:52.255Z,10.90
2023-03-22T09:03:41.982Z,10.90
2023-03-22T09:06:28.194Z,11.00
2023-03-22T09:09:10.619Z,11.20
2023-03-22T09:11:53.480Z,11.40
2023-03-22T09:14:36.502Z,11.60
2023-03-22T09:17:22.421Z,11.80
2023-03-22T09:20:12.860Z,11.90
2023-03-22T09:22:58.123Z,12.10
2023-03-22T09:25:43.757Z,12.10
2023-03-22T09:28:26.680Z,12.20
2023-03-22T09:31:12.570Z,12.30
2023-03-22T09:33:57.140Z,12.40
2023-03-22T09:36:39.419Z,12.40
2023-03-22T09:39:22.419Z,12.40
2023-03-22T09:42:15.783Z,12.60
2023-03-22T09:44:59.287Z,12.70
2023-03-22T09:47:53.620Z,12.90
2023-03-22T09:50:43.964Z,13.00
2023-03-22T09:53:28.698Z,13.10
2023-03-22T09:56:23.208Z,13.20
2023-03-22T09:59:44.143Z,13.20
2023-03-22T10:02:57.951Z,13.20
2023-03-22T10:05:55.629Z,13.10
2023-03-22T10:09:11.717Z,13.10
2023-03-22T10:12:09.052Z,13.00
2023-03-22T10:15:03.327Z,13.00
2023-03-22T10:17:54.297Z,12.90
2023-03-22T10:20:45.425Z,13.00
2023-03-22T10:23:52.466Z,13.10
2023-03-22T10:26:38.528Z,13.40
2023-03-22T10:29:29.312Z,13.50
2023-03-22T10:32:19.879Z,13.60
2023-03-22T10:35:02.347Z,13.80
2023-03-22T10:37:48.496Z,14.10
2023-03-22T10:40:34.125Z,14.30
2023-03-22T10:43:35.278Z,14.40
2023-03-22T10:46:24.013Z,14.60
2023-03-22T10:49:07.972Z,14.70
2023-03-22T10:51:54.582Z,14.80
2023-03-22T10:54:37.303Z,14.90
2023-03-22T10:57:19.564Z,14.90
2023-03-22T11:00:08.630Z,15.00
2023-03-22T11:02:58.553Z,14.90
2023-03-22T11:05:41.306Z,14.90
2023-03-22T11:08:23.713Z,15.00
2023-03-22T11:11:14.189Z,15.10
2023-03-22T11:13:59.363Z,15.20
2023-03-22T11:16:45.077Z,15.30
2023-03-22T11:19:41.151Z,15.40
2023-03-22T11:22:44.208Z,15.50
2023-03-22T11:25:38.271Z,15.50
2023-03-22T11:28:26.392Z,15.50
2023-03-22T11:31:16.106Z,15.50
2023-03-22T11:34:01.036Z,15.40
2023-03-22T11:36:52.793Z,15.40
2023-03-22T11:39:35.288Z,15.40
2023-03-22T11:42:21.855Z,15.50
2023-03-22T11:45:04.826Z,15.70
2023-03-22T11:47:47.539Z,15.80
2023-03-22T11:50:34.477Z,15.70
2023-03-22T11:53:26.354Z,15.70
2023-03-22T11:56:17.108Z,15.50
2023-03-22T11:59:23.746Z,15.40
2023-03-22T12:02:18.541Z,15.40
2023-03-22T12:05:18.658Z,15.40
2023-03-22T12:08:06.847Z,15.30
2023-03-22T12:10:55.289Z,15.20
2023-03-22T12:13:54.587Z,15.00
2023-03-22T12:16:47.506Z,15.00
2023-03-22T12:19:50.246Z,15.00
2023-03-22T12:22:35.291Z,15.00
2023-03-22T12:25:32.188Z,15.10
2023-03-22T12:28:19.711Z,15.20
2023-03-22T12:31:03.797Z,15.30
2023-03-22T12:33:50.408Z,15.40
2023-03-22T12:36:42.983Z,15.40
2023-03-22T12:39:51.441Z,15.40
2023-03-22T12:42:52.306Z,15.40
2023-03-22T12:45:41.576Z,15.50
2023-03-22T12:48:45.147Z,15.60
2023-03-22T12:51:28.703Z,15.80
2023-03-22T12:54:14.010Z,15.80
2023-03-22T12:56:56.635Z,15.80
2023-03-22T12:59:44.270Z,15.60
2023-03-22T13:02:34.766Z,15.50
2023-03-22T13:05:18.740Z,15.40
2023-03-22T13:08:04.103Z,15.40
2023-03-22T13:11:03.400Z,15.40
2023-03-22T13:13:47.413Z,15.50
2023-03-22T13:16:55.945Z,15.60
2023-03-22T13:19:38.713Z,15.60
2023-03-22T13:22:27.114Z,15.50
2023-03-22T13:25:19.141Z,15.50
2023-03-22T13:28:21.840Z,15.40
2023-03-22T13:31:05.541Z,15.40
2023-03-22T13:33:53.781Z,15.40
2023-03-22T13:36:37.469Z,15.50
2023-03-22T13:39:25.310Z,15.60
2023-03-22T13:42:38.318Z,15.60
2023-03-22T13:45:33.791Z,15.70
2023-03-22T13:48:48.841Z,15.60
2023-03-22T13:51:33.412Z,15.60
2023-03-22T13:54:18.815Z,15.60
2023-03-22T13:57:01.720Z,15.70
2023-03-22T14:00:14.843Z,15.70
2023-03-22T14:03:02.263Z,15.60
2023-03-22T14:05:47.418Z,15.60
2023-03-22T14:08:32.102Z,15.70
2023-03-22T14:11:33.179Z,15.70
2023-03-22T14:14:24.743Z,15.70
2023-03-22T14:17:31.773Z,15.90
2023-03-22T14:20:19.752Z,16.10
